Aurora, CO (80042)

4:21 AM MST on November 23, 2014 (GMT -0700)
North Aurora / Fitzsimmons | Change Station
CLOSE
Current Station
Personal Weather Station
Location: Aurora, CO
Elevation: 5364 ft
Nearby Weather Stations

Elev 5364 ft 39.75 °N, 104.85 °W | Updated 8 seconds ago

Overcast
Overcast
37.6 °F
Feels Like 38 °F
N
0.0
Wind Variable Wind from North
Gusts 0.0 mph

Today
High -- | Low -- °F
--% Chance of Precip.
Yesterday
High -- | Low -- °F
Precip. -- in
6:52 AM 4:38 PM
New Moon, 1% visible
Pressure 29.62 in
Visibility 10.0 miles
Clouds Scattered Clouds 2500 ft
Mostly Cloudy 4000 ft
Mostly Cloudy 6000 ft
Overcast 10000 ft
Windchill 38 °F
Dew Point 22 °F
Humidity 52%
Rainfall 0.00 in
Snow Depth Not available.
UV 0 out of 12
Pollen .10 out of 12
Air Quality Not available.
Flu Activity Not available.
METAR KBKF 231058Z 03011G16KT 10SM SCT025 BKN040 BKN060 OVC100 02/M03 A2968 RMK AO2A SNB1031E1058RAB1006E1058 SLP029 P0000 T00201032

More Conditions Fewer Conditions

Pressure 29.62 in
Visibility 10.0 miles
Clouds Scattered Clouds 2500 ft
Mostly Cloudy 4000 ft
Mostly Cloudy 6000 ft
Overcast 10000 ft
Windchill 38 °F
Dew Point 22 °F
Humidity 52%
Rainfall 0.00 in
Snow Depth Not available.
UV 0 out of 12
Pollen .10 out of 12
Air Quality Not available.
Flu Activity Not available.
METAR KBKF 231058Z 03011G16KT 10SM SCT025 BKN040 BKN060 OVC100 02/M03 A2968 RMK AO2A SNB1031E1058RAB1006E1058 SLP029 P0000 T00201032

More Conditions Fewer Conditions

10-Day Weather Forecast

Almanac

Astronomy

Nov. 23, 2014 Rise Set
Actual Time
Civil Twilight
Nautical Twilight
Astronomical Twilight
Moon
Length of Visible Light
Length of Day
Tomorrow will be .
, % of the Moon is Illuminated

Today's Extremes

State Highs State Lows

Community

WunderPhotos

Upload Photos

1,773,036 photos uploaded!

WunderBlogs® & News

Nearby

Air Quality

  Air Quality AQ Index Pollutant
Not available.

Snow Depth

Station Depth Elevation

Earthquake Activity

City Distance Mag. Time & Date
Minimum magnitude displayed is 2.5.

Coastal Water Temperatures

Place Temperature

Nearby Weather Stations